Terminal Aerodrome Forecast
Issued by NWS Springfield, MO

Home | Current Version | Previous Version | Text Only | Print | Product List | Glossary On
Versions: 1 2 3 4 5 6 7 8 9 10 11 12 13 14 15 16 17 18 19
000
FTUS43 KSGF 231100
TAFSGF
TAF
KSGF 231120Z 2312/2412 10006KT P6SM BKN150
     FM231600 13010KT P6SM SCT050
     FM240600 15015G25KT P6SM OVC040 WS015/15040KT PROB30 2406/2412
      3SM TSRA OVC040CB=

USA.gov is the U.S. government's official web portal to all federal, state and local government web resources and services.